createdAt,value
2022-08-09T00:00:23.407Z,101507.00
2022-08-09T00:02:52.281Z,101496.00
2022-08-09T00:06:16.179Z,101508.00
2022-08-09T00:08:11.363Z,101501.00
2022-08-09T00:11:06.085Z,101503.00
2022-08-09T00:13:50.259Z,101499.00
2022-08-09T00:16:26.284Z,101508.00
2022-08-09T00:19:09.408Z,101508.00
2022-08-09T00:21:56.301Z,101512.00
2022-08-09T00:24:27.570Z,101510.00
2022-08-09T00:26:55.968Z,101506.00
2022-08-09T00:30:09.714Z,101503.00
2022-08-09T00:32:12.706Z,101500.00
2022-08-09T00:34:39.805Z,101510.00
2022-08-09T00:37:18.867Z,101501.00
2022-08-09T00:40:13.662Z,101498.00
2022-08-09T00:44:13.488Z,101504.00
2022-08-09T00:45:21.011Z,101495.00
2022-08-09T00:47:48.227Z,101482.00
2022-08-09T00:50:15.310Z,101499.00
2022-08-09T00:52:42.848Z,101502.00
2022-08-09T00:55:32.850Z,101504.00
2022-08-09T00:57:59.420Z,101505.00
2022-08-09T01:00:28.413Z,101506.00
2022-08-09T01:03:20.188Z,101509.00
2022-08-09T01:05:53.607Z,101503.00
2022-08-09T01:08:35.186Z,101505.00
2022-08-09T01:11:55.770Z,101514.00
2022-08-09T01:14:31.644Z,101511.00
2022-08-09T01:17:10.895Z,101508.00
2022-08-09T01:20:01.944Z,101487.00
2022-08-09T01:22:55.291Z,101506.00
2022-08-09T01:25:51.247Z,101504.00
2022-08-09T01:28:22.539Z,101497.00
2022-08-09T01:30:59.182Z,101505.00
2022-08-09T01:33:34.202Z,101498.00
2022-08-09T01:36:08.837Z,101496.00
2022-08-09T01:38:46.315Z,101499.00
2022-08-09T01:41:26.338Z,101496.00
2022-08-09T01:44:00.514Z,101504.00
2022-08-09T01:46:47.210Z,101485.00
2022-08-09T01:49:18.051Z,101503.00
2022-08-09T01:52:07.253Z,101497.00
2022-08-09T01:54:48.518Z,101497.00
2022-08-09T01:57:40.097Z,101504.00
2022-08-09T02:00:35.090Z,101497.00
2022-08-09T02:03:03.331Z,101503.00
2022-08-09T02:05:37.674Z,101505.00
2022-08-09T02:08:39.246Z,101509.00
2022-08-09T02:11:17.282Z,101497.00
2022-08-09T02:14:06.163Z,101508.00
2022-08-09T02:16:52.995Z,101499.00
2022-08-09T02:19:38.731Z,101500.00
2022-08-09T02:22:35.938Z,101504.00
2022-08-09T02:25:15.021Z,101502.00
2022-08-09T02:28:00.469Z,101502.00
2022-08-09T02:30:43.194Z,101515.00
2022-08-09T02:33:23.625Z,101503.00
2022-08-09T02:36:26.645Z,101509.00
2022-08-09T02:38:56.953Z,101498.00
2022-08-09T02:41:49.511Z,101506.00
2022-08-09T02:44:29.617Z,101492.00
2022-08-09T02:47:04.990Z,101488.00
2022-08-09T02:49:41.404Z,101513.00
2022-08-09T02:52:15.211Z,101515.00
2022-08-09T02:54:53.958Z,101510.00
2022-08-09T02:57:25.023Z,101512.00
2022-08-09T03:00:25.012Z,101521.00
2022-08-09T03:02:58.514Z,101517.00
2022-08-09T03:05:34.373Z,101521.00
2022-08-09T03:08:04.566Z,101522.00
2022-08-09T03:10:34.649Z,101517.00
2022-08-09T03:13:02.807Z,101523.00
2022-08-09T03:16:04.220Z,101514.00
2022-08-09T03:18:30.983Z,101528.00
2022-08-09T03:21:00.752Z,101521.00
2022-08-09T03:23:29.514Z,101520.00
2022-08-09T03:37:55.364Z,101506.00
2022-08-09T03:40:24.598Z,101511.00
2022-08-09T03:42:51.947Z,101510.00
2022-08-09T03:46:05.127Z,101504.00
2022-08-09T03:48:06.546Z,101519.00
2022-08-09T03:50:36.348Z,101512.00
2022-08-09T03:53:07.126Z,101521.00
2022-08-09T03:55:40.999Z,101526.00
2022-08-09T03:58:16.312Z,101519.00
2022-08-09T04:00:45.774Z,101511.00
2022-08-09T04:03:24.670Z,101526.00
2022-08-09T04:06:04.722Z,101532.00
2022-08-09T04:08:33.146Z,101533.00
2022-08-09T04:11:01.660Z,101539.00
2022-08-09T04:14:37.214Z,101539.00
2022-08-09T04:16:20.494Z,101536.00
2022-08-09T04:18:50.935Z,101538.00
2022-08-09T04:21:19.180Z,101527.00
2022-08-09T04:23:54.347Z,101545.00
2022-08-09T04:26:25.194Z,101550.00
2022-08-09T04:29:10.897Z,101528.00
2022-08-09T04:31:47.058Z,101547.00
2022-08-09T04:34:19.070Z,101550.00
2022-08-09T04:36:57.841Z,101557.00
2022-08-09T04:39:24.829Z,101556.00
2022-08-09T04:41:59.726Z,101553.00
2022-08-09T04:44:29.736Z,101540.00
2022-08-09T04:47:04.587Z,101553.00
2022-08-09T04:49:53.926Z,101557.00
2022-08-09T04:52:26.875Z,101565.00
2022-08-09T04:54:57.550Z,101560.00
2022-08-09T04:57:26.189Z,101566.00
2022-08-09T04:59:55.632Z,101565.00
2022-08-09T05:02:27.342Z,101559.00
2022-08-09T05:04:55.667Z,101559.00
2022-08-09T05:07:24.301Z,101557.00
2022-08-09T05:09:51.332Z,101541.00
2022-08-09T05:12:18.727Z,101554.00
2022-08-09T05:14:49.550Z,101564.00
2022-08-09T05:18:38.718Z,101568.00
2022-08-09T05:20:08.061Z,101567.00
2022-08-09T05:23:50.632Z,101571.00
2022-08-09T05:25:24.920Z,101571.00
2022-08-09T05:27:55.478Z,101570.00
2022-08-09T05:30:22.606Z,101572.00
2022-08-09T05:32:50.606Z,101565.00
2022-08-09T05:35:18.351Z,101577.00
2022-08-09T05:37:51.064Z,101568.00
2022-08-09T05:40:18.819Z,101580.00
2022-08-09T05:42:46.850Z,101576.00
2022-08-09T05:45:14.590Z,101579.00
2022-08-09T05:47:51.510Z,101575.00
2022-08-09T05:50:30.507Z,101588.00
2022-08-09T05:53:11.797Z,101583.00
2022-08-09T05:55:53.871Z,101582.00
2022-08-09T05:58:21.264Z,101590.00
2022-08-09T06:00:48.392Z,101587.00
2022-08-09T06:03:19.974Z,101581.00
2022-08-09T06:05:57.272Z,101592.00
2022-08-09T06:08:32.100Z,101577.00
2022-08-09T06:10:59.344Z,101589.00
2022-08-09T06:13:33.890Z,101589.00
2022-08-09T06:16:04.852Z,101584.00
2022-08-09T06:18:32.983Z,101584.00
2022-08-09T06:21:04.354Z,101585.00
2022-08-09T06:23:57.135Z,101578.00
2022-08-09T06:26:22.685Z,101586.00
2022-08-09T06:29:00.481Z,101578.00
2022-08-09T06:31:31.512Z,101579.00
2022-08-09T06:34:07.251Z,101583.00
2022-08-09T06:36:34.461Z,101581.00
2022-08-09T06:39:02.709Z,101579.00
2022-08-09T06:42:06.404Z,101585.00
2022-08-09T06:44:23.749Z,101589.00
2022-08-09T06:46:55.171Z,101577.00
2022-08-09T06:49:44.909Z,101590.00
2022-08-09T06:52:12.114Z,101600.00
2022-08-09T06:54:43.306Z,101602.00
2022-08-09T07:08:26.401Z,101615.00
2022-08-09T07:10:58.656Z,101606.00
2022-08-09T07:13:28.129Z,101596.00
2022-08-09T07:16:42.915Z,101621.00
2022-08-09T07:18:47.346Z,101625.00
2022-08-09T07:21:17.281Z,101621.00
2022-08-09T07:23:56.707Z,101622.00
2022-08-09T07:26:25.631Z,101623.00
2022-08-09T07:29:09.288Z,101625.00
2022-08-09T07:31:45.544Z,101613.00
2022-08-09T07:34:20.476Z,101631.00
2022-08-09T07:36:49.443Z,101636.00
2022-08-09T07:39:20.481Z,101633.00
2022-08-09T07:42:06.276Z,101639.00
2022-08-09T07:44:52.511Z,101639.00
2022-08-09T07:47:23.254Z,101629.00
2022-08-09T07:49:52.264Z,101622.00
2022-08-09T07:52:36.576Z,101613.00
2022-08-09T07:55:09.500Z,101608.00
2022-08-09T07:57:47.383Z,101614.00
2022-08-09T08:00:36.661Z,101621.00
2022-08-09T08:03:09.757Z,101620.00
2022-08-09T08:05:39.074Z,101637.00
2022-08-09T08:09:01.360Z,101626.00
2022-08-09T08:12:12.092Z,101623.00
2022-08-09T08:13:57.269Z,101626.00
2022-08-09T08:16:31.721Z,101614.00
2022-08-09T08:19:02.976Z,101617.00
2022-08-09T08:21:32.406Z,101598.00
2022-08-09T08:24:01.321Z,101619.00
2022-08-09T08:26:54.902Z,101617.00
2022-08-09T08:29:27.870Z,101593.00
2022-08-09T08:32:04.331Z,101612.00
2022-08-09T08:34:34.532Z,101597.00
2022-08-09T08:37:04.207Z,101607.00
2022-08-09T08:39:39.838Z,101590.00
2022-08-09T08:42:12.585Z,101602.00
2022-08-09T08:44:42.778Z,101590.00
2022-08-09T08:47:13.463Z,101581.00
2022-08-09T08:49:47.888Z,101605.00
2022-08-09T08:55:15.255Z,101605.00
2022-08-09T08:57:57.528Z,101594.00
2022-08-09T09:00:34.471Z,101590.00
2022-08-09T09:03:11.694Z,101593.00
2022-08-09T09:06:01.199Z,101602.00
2022-08-09T09:08:42.171Z,101601.00
2022-08-09T09:11:13.844Z,101597.00
2022-08-09T09:13:56.489Z,101606.00
2022-08-09T09:16:34.498Z,101614.00
2022-08-09T09:19:37.814Z,101616.00
2022-08-09T09:22:13.838Z,101620.00
2022-08-09T09:25:08.578Z,101622.00
2022-08-09T09:28:04.331Z,101612.00
2022-08-09T09:30:40.722Z,101596.00
2022-08-09T09:33:15.625Z,101615.00
2022-08-09T09:36:03.366Z,101617.00
2022-08-09T09:38:57.264Z,101619.00
2022-08-09T09:41:26.065Z,101622.00
2022-08-09T09:44:12.925Z,101630.00
2022-08-09T09:46:52.060Z,101637.00
2022-08-09T09:49:56.417Z,101635.00
2022-08-09T09:52:16.396Z,101633.00
2022-08-09T09:55:23.858Z,101632.00
2022-08-09T09:58:17.346Z,101631.00
2022-08-09T10:00:59.051Z,101626.00
2022-08-09T10:03:57.337Z,101621.00
2022-08-09T10:06:42.944Z,101622.00
2022-08-09T10:09:22.204Z,101612.00
2022-08-09T10:12:15.068Z,101617.00
2022-08-09T10:14:51.775Z,101612.00
2022-08-09T10:17:40.147Z,101609.00
2022-08-09T10:20:26.635Z,101613.00
2022-08-09T10:23:12.408Z,101612.00
2022-08-09T10:26:07.916Z,101609.00
2022-08-09T10:28:34.546Z,101626.00
2022-08-09T10:34:10.674Z,101612.00
2022-08-09T10:36:39.982Z,101607.00
2022-08-09T10:39:15.812Z,101599.00
2022-08-09T10:41:47.792Z,101600.00
2022-08-09T10:44:21.826Z,101596.00
2022-08-09T10:48:13.165Z,101578.00
2022-08-09T10:50:31.339Z,101570.00
2022-08-09T10:53:27.795Z,101569.00
2022-08-09T10:56:24.206Z,101560.00
2022-08-09T10:58:54.099Z,101560.00
2022-08-09T11:03:14.130Z,101563.00
2022-08-09T11:04:32.503Z,101583.00
2022-08-09T11:07:01.047Z,101570.00
2022-08-09T11:09:47.813Z,101561.00
2022-08-09T11:12:26.634Z,101555.00
2022-08-09T11:15:24.336Z,101553.00
2022-08-09T11:18:03.655Z,101543.00
2022-08-09T11:20:50.468Z,101555.00
2022-08-09T11:23:23.886Z,101566.00
2022-08-09T11:25:51.428Z,101556.00
2022-08-09T11:28:55.960Z,101567.00
2022-08-09T11:31:49.760Z,101572.00
2022-08-09T11:34:29.383Z,101577.00
2022-08-09T11:36:59.744Z,101583.00
2022-08-09T11:39:33.582Z,101578.00
2022-08-09T11:42:14.731Z,101580.00
2022-08-09T11:44:48.378Z,101580.00
2022-08-09T11:47:16.019Z,101580.00
2022-08-09T11:50:55.103Z,101578.00
2022-08-09T11:53:15.819Z,101581.00
2022-08-09T11:55:53.837Z,101578.00
2022-08-09T11:58:33.219Z,101576.00
2022-08-09T12:01:15.719Z,101579.00
2022-08-09T12:04:06.130Z,101579.00
2022-08-09T12:06:35.069Z,101569.00
2022-08-09T12:09:19.647Z,101585.00
2022-08-09T12:12:20.613Z,101584.00
2022-08-09T12:15:08.494Z,101568.00
2022-08-09T12:17:45.709Z,101579.00
2022-08-09T12:20:23.915Z,101583.00
2022-08-09T12:23:03.529Z,101575.00
2022-08-09T12:25:37.240Z,101570.00
2022-08-09T12:29:15.213Z,101562.00
2022-08-09T12:31:58.665Z,101568.00
2022-08-09T12:34:13.056Z,101567.00
2022-08-09T12:36:59.092Z,101569.00
2022-08-09T12:39:41.727Z,101569.00
2022-08-09T12:42:16.407Z,101568.00
2022-08-09T12:44:46.413Z,101560.00
2022-08-09T12:47:23.313Z,101565.00
2022-08-09T12:50:09.303Z,101556.00
2022-08-09T12:53:09.130Z,101567.00
2022-08-09T12:56:14.458Z,101555.00
2022-08-09T12:58:24.386Z,101553.00
2022-08-09T13:00:55.053Z,101550.00
2022-08-09T13:03:53.123Z,101541.00
2022-08-09T13:06:34.451Z,101542.00
2022-08-09T13:09:13.006Z,101542.00
2022-08-09T13:11:45.412Z,101547.00
2022-08-09T13:14:42.753Z,101542.00
2022-08-09T13:17:44.503Z,101548.00
2022-08-09T13:20:12.630Z,101552.00
2022-08-09T13:23:04.871Z,101550.00
2022-08-09T13:25:52.906Z,101551.00
2022-08-09T13:28:34.670Z,101548.00
2022-08-09T13:32:15.121Z,101543.00
2022-08-09T13:33:54.987Z,101549.00
2022-08-09T13:36:41.414Z,101552.00
2022-08-09T13:41:19.499Z,101557.00
2022-08-09T13:42:12.965Z,101548.00
2022-08-09T13:44:43.248Z,101547.00
2022-08-09T13:47:26.649Z,101538.00
2022-08-09T13:50:08.731Z,101547.00
2022-08-09T13:52:46.055Z,101550.00
2022-08-09T13:55:17.831Z,101536.00
2022-08-09T13:57:55.887Z,101530.00
2022-08-09T14:00:28.574Z,101531.00
2022-08-09T14:03:03.188Z,101535.00
2022-08-09T14:05:59.260Z,101529.00
2022-08-09T14:08:31.616Z,101535.00
2022-08-09T14:11:00.566Z,101533.00
2022-08-09T14:14:23.709Z,101533.00
2022-08-09T14:16:20.016Z,101538.00
2022-08-09T14:18:58.205Z,101526.00
2022-08-09T14:21:29.627Z,101527.00
2022-08-09T14:24:05.581Z,101529.00
2022-08-09T14:26:51.276Z,101529.00
2022-08-09T14:30:15.170Z,101521.00
2022-08-09T14:32:13.155Z,101519.00
2022-08-09T14:34:43.533Z,101517.00
2022-08-09T14:37:12.471Z,101518.00
2022-08-09T14:39:47.817Z,101535.00
2022-08-09T14:42:29.060Z,101532.00
2022-08-09T14:46:39.536Z,101535.00
2022-08-09T14:48:00.394Z,101532.00
2022-08-09T14:50:37.019Z,101532.00
2022-08-09T14:53:11.624Z,101533.00
2022-08-09T14:55:48.092Z,101536.00
2022-08-09T14:58:17.845Z,101529.00
2022-08-09T15:00:48.212Z,101528.00
2022-08-09T15:03:20.398Z,101530.00
2022-08-09T15:05:50.230Z,101532.00
2022-08-09T15:08:23.782Z,101538.00
2022-08-09T15:11:01.055Z,101524.00
2022-08-09T15:13:48.623Z,101534.00
2022-08-09T15:16:19.774Z,101527.00
2022-08-09T15:18:48.961Z,101528.00
2022-08-09T15:21:55.920Z,101532.00
2022-08-09T15:24:13.926Z,101526.00
2022-08-09T15:26:46.770Z,101543.00
2022-08-09T15:30:49.971Z,101551.00
2022-08-09T15:32:02.183Z,101549.00
2022-08-09T15:34:34.278Z,101539.00
2022-08-09T15:37:23.468Z,101535.00
2022-08-09T15:39:53.841Z,101555.00
2022-08-09T15:42:22.240Z,101545.00
2022-08-09T15:44:50.439Z,101544.00
2022-08-09T15:47:22.452Z,101549.00
2022-08-09T15:50:03.464Z,101548.00
2022-08-09T15:52:36.382Z,101547.00
2022-08-09T15:55:06.388Z,101551.00
2022-08-09T15:57:44.378Z,101553.00
2022-08-09T16:00:26.243Z,101551.00
2022-08-09T16:02:56.125Z,101560.00
2022-08-09T16:05:47.193Z,101561.00
2022-08-09T16:08:30.716Z,101564.00
2022-08-09T16:11:01.516Z,101552.00
2022-08-09T16:14:05.884Z,101570.00
2022-08-09T16:16:18.606Z,101556.00
2022-08-09T16:18:47.439Z,101562.00
2022-08-09T16:21:16.783Z,101560.00
2022-08-09T16:23:50.662Z,101555.00
2022-08-09T16:26:35.317Z,101553.00
2022-08-09T16:29:11.244Z,101570.00
2022-08-09T16:32:18.213Z,101559.00
2022-08-09T16:34:56.513Z,101564.00
2022-08-09T16:37:50.595Z,101566.00
2022-08-09T16:40:10.466Z,101566.00
2022-08-09T16:42:39.021Z,101555.00
2022-08-09T16:45:17.559Z,101553.00
2022-08-09T16:48:39.725Z,101563.00
2022-08-09T16:50:38.536Z,101566.00
2022-08-09T16:53:06.683Z,101561.00
2022-08-09T16:55:58.890Z,101561.00
2022-08-09T16:58:24.153Z,101553.00
2022-08-09T17:00:51.310Z,101558.00
2022-08-09T17:03:22.278Z,101559.00
2022-08-09T17:06:07.687Z,101564.00
2022-08-09T17:09:02.967Z,101565.00
2022-08-09T17:11:33.037Z,101536.00
2022-08-09T17:14:25.802Z,101548.00
2022-08-09T17:17:23.340Z,101566.00
2022-08-09T17:20:28.517Z,101576.00
2022-08-09T17:22:51.650Z,101580.00
2022-08-09T17:25:22.021Z,101584.00
2022-08-09T17:27:54.314Z,101592.00
2022-08-09T17:30:28.882Z,101599.00
2022-08-09T17:33:05.273Z,101592.00
2022-08-09T17:35:46.618Z,101593.00
2022-08-09T17:38:32.110Z,101598.00
2022-08-09T17:41:03.033Z,101602.00
2022-08-09T17:43:33.538Z,101612.00
2022-08-09T17:46:06.994Z,101617.00
2022-08-09T17:48:39.066Z,101612.00
2022-08-09T17:51:18.150Z,101612.00
2022-08-09T17:53:53.308Z,101619.00
2022-08-09T17:56:35.480Z,101622.00
2022-08-09T17:59:09.254Z,101616.00
2022-08-09T18:01:57.821Z,101615.00
2022-08-09T18:04:26.327Z,101623.00
2022-08-09T18:06:55.100Z,101626.00
2022-08-09T18:09:40.090Z,101626.00
2022-08-09T18:12:17.957Z,101625.00
2022-08-09T18:14:53.617Z,101613.00
2022-08-09T18:18:02.628Z,101622.00
2022-08-09T18:20:54.253Z,101628.00
2022-08-09T18:23:05.564Z,101631.00
2022-08-09T18:25:50.301Z,101636.00
2022-08-09T18:30:36.240Z,101632.00
2022-08-09T18:31:07.069Z,101642.00
2022-08-09T18:33:34.700Z,101633.00
2022-08-09T18:36:02.110Z,101638.00
2022-08-09T18:38:30.244Z,101655.00
2022-08-09T18:40:59.340Z,101654.00
2022-08-09T18:43:27.355Z,101657.00
2022-08-09T18:46:49.263Z,101656.00
2022-08-09T18:48:51.231Z,101665.00
2022-08-09T18:51:18.436Z,101668.00
2022-08-09T18:54:06.576Z,101661.00
2022-08-09T18:56:43.561Z,101674.00
2022-08-09T18:59:21.008Z,101680.00
2022-08-09T19:01:48.303Z,101668.00
2022-08-09T19:04:17.590Z,101668.00
2022-08-09T19:07:02.235Z,101663.00
2022-08-09T19:10:14.814Z,101671.00
2022-08-09T19:12:21.153Z,101660.00
2022-08-09T19:14:51.408Z,101658.00
2022-08-09T19:17:20.190Z,101661.00
2022-08-09T19:19:48.612Z,101669.00
2022-08-09T19:22:17.516Z,101671.00
2022-08-09T19:25:09.882Z,101672.00
2022-08-09T19:27:36.014Z,101664.00
2022-08-09T19:30:22.307Z,101664.00
2022-08-09T19:32:58.506Z,101660.00
2022-08-09T19:35:26.764Z,101671.00
2022-08-09T19:37:57.717Z,101662.00
2022-08-09T19:40:34.188Z,101670.00
2022-08-09T19:43:09.967Z,101670.00
2022-08-09T19:45:42.217Z,101659.00
2022-08-09T19:48:11.058Z,101662.00
2022-08-09T19:50:51.450Z,101668.00
2022-08-09T19:53:22.207Z,101669.00
2022-08-09T19:56:02.973Z,101666.00
2022-08-09T19:58:34.957Z,101663.00
2022-08-09T20:01:03.597Z,101656.00
2022-08-09T20:04:10.620Z,101663.00
2022-08-09T20:06:23.527Z,101664.00
2022-08-09T20:08:57.582Z,101665.00
2022-08-09T20:11:43.029Z,101667.00
2022-08-09T20:14:16.456Z,101654.00
2022-08-09T20:16:53.658Z,101658.00
2022-08-09T20:19:48.775Z,101656.00
2022-08-09T20:22:14.184Z,101670.00
2022-08-09T20:24:54.051Z,101659.00
2022-08-09T20:27:22.156Z,101655.00
2022-08-09T20:29:49.831Z,101657.00
2022-08-09T20:32:29.689Z,101665.00
2022-08-09T20:35:06.294Z,101666.00
2022-08-09T20:37:37.980Z,101661.00
2022-08-09T20:40:27.563Z,101677.00
2022-08-09T20:43:00.048Z,101667.00
2022-08-09T20:46:01.975Z,101658.00
2022-08-09T20:48:34.582Z,101656.00
2022-08-09T20:51:03.105Z,101656.00
2022-08-09T20:53:37.225Z,101650.00
2022-08-09T20:56:21.107Z,101662.00
2022-08-09T20:58:50.312Z,101650.00
2022-08-09T21:01:34.175Z,101648.00
2022-08-09T21:05:49.755Z,101647.00
2022-08-09T21:06:52.348Z,101648.00
2022-08-09T21:09:32.843Z,101648.00
2022-08-09T21:14:40.655Z,101653.00
2022-08-09T21:18:22.019Z,101652.00
2022-08-09T21:20:17.042Z,101650.00
2022-08-09T21:22:53.891Z,101650.00
2022-08-09T21:25:43.990Z,101659.00
2022-08-09T21:28:33.270Z,101650.00
2022-08-09T21:31:16.110Z,101648.00
2022-08-09T21:33:52.754Z,101651.00
2022-08-09T21:36:28.173Z,101648.00
2022-08-09T21:38:59.941Z,101645.00
2022-08-09T21:42:03.782Z,101644.00
2022-08-09T21:44:34.625Z,101651.00
2022-08-09T21:47:08.622Z,101655.00
2022-08-09T21:49:42.966Z,101648.00
2022-08-09T21:52:16.362Z,101654.00
2022-08-09T21:55:03.181Z,101652.00
2022-08-09T21:57:58.758Z,101635.00
2022-08-09T22:00:32.193Z,101655.00
2022-08-09T22:03:06.803Z,101648.00
2022-08-09T22:05:42.050Z,101655.00
2022-08-09T22:08:14.617Z,101650.00
2022-08-09T22:11:00.552Z,101668.00
2022-08-09T22:13:36.985Z,101647.00
2022-08-09T22:16:08.871Z,101654.00
2022-08-09T22:18:53.453Z,101649.00
2022-08-09T22:21:44.838Z,101650.00
2022-08-09T22:24:17.095Z,101649.00
2022-08-09T22:26:51.539Z,101641.00
2022-08-09T22:29:25.563Z,101650.00
2022-08-09T22:31:57.989Z,101630.00
2022-08-09T22:34:28.692Z,101644.00
2022-08-09T22:36:58.496Z,101641.00
2022-08-09T22:39:57.228Z,101638.00
2022-08-09T22:42:22.181Z,101635.00
2022-08-09T22:48:04.686Z,101635.00
2022-08-09T22:48:33.736Z,101636.00
2022-08-09T22:50:31.848Z,101647.00
2022-08-09T22:53:04.343Z,101649.00
2022-08-09T22:56:06.375Z,101645.00
2022-08-09T22:58:20.175Z,101648.00
2022-08-09T23:01:00.706Z,101638.00
2022-08-09T23:04:04.418Z,101638.00
2022-08-09T23:06:32.573Z,101640.00
2022-08-09T23:09:07.489Z,101630.00
2022-08-09T23:11:35.051Z,101634.00
2022-08-09T23:14:03.698Z,101639.00
2022-08-09T23:16:31.753Z,101638.00
2022-08-09T23:18:58.863Z,101630.00
2022-08-09T23:21:30.088Z,101637.00
2022-08-09T23:24:06.408Z,101624.00
2022-08-09T23:26:39.289Z,101630.00
2022-08-09T23:29:13.455Z,101623.00
2022-08-09T23:31:41.577Z,101627.00
2022-08-09T23:34:09.289Z,101619.00
2022-08-09T23:36:37.039Z,101631.00
2022-08-09T23:39:09.360Z,101634.00
2022-08-09T23:41:36.924Z,101618.00
2022-08-09T23:44:04.602Z,101635.00
2022-08-09T23:46:33.298Z,101646.00
2022-08-09T23:49:00.787Z,101639.00
2022-08-09T23:51:28.917Z,101630.00
2022-08-09T23:54:02.964Z,101609.00
2022-08-09T23:56:52.809Z,101644.00
2022-08-09T23:59:21.389Z,101629.00
